Dekalb, IL

9:37 AM CDT on June 30, 2015 (GMT -0500)
South DeKalb | | Change Station
CLOSE
Current Station
Personal Weather Station
Location: DeKalb, IL
Elevation: 880 ft
Nearby Weather Stations

Elev 880 ft 41.92 °N, 88.76 °W | Updated 5 seconds ago

Clear
Clear
68.2 °F
Feels Like 68.2 °F
N
1.0
Wind Variable Wind from NNW
Gusts 4.0 mph

Today
High -- | Low -- °F
--% Chance of Precip.
Yesterday
High -- | Low -- °F
Precip. -- in
5:22 AM 8:34 PM
Waxing Gibbous, 97% visible
Pressure 29.86 in
Visibility 7.0 miles
Clouds Clear
Dew Point 64 °F
Humidity 87%
Rainfall in
Snow Depth Not available.
UV 5 out of 12
Pollen 3.70 out of 12
Air Quality Not available.
Flu Activity Sporadic
METAR KDKB 301415Z AUTO 30007KT 7SM CLR 18/16 A2986 RMK AO2 T01800156

More Conditions Fewer Conditions

Pressure 29.86 in
Visibility 7.0 miles
Clouds Clear
Dew Point 64 °F
Humidity 87%
Rainfall in
Snow Depth Not available.
UV 5 out of 12
Pollen 3.70 out of 12
Air Quality Not available.
Flu Activity Sporadic
METAR KDKB 301415Z AUTO 30007KT 7SM CLR 18/16 A2986 RMK AO2 T01800156

More Conditions Fewer Conditions

10-Day Weather Forecast

×

Almanac

Astronomy

Jun. 30, 2015 Rise Set
Actual Time
Civil Twilight
Nautical Twilight
Astronomical Twilight
Moon
Length of Visible Light
Length of Day
Tomorrow will be .
, % of the Moon is Illuminated

Today's Extremes

State Highs State Lows

Community

WunderPhotos

Upload Photos

1,834,008 photos uploaded!

WunderBlogs® & News

Nearby

Air Quality

  Air Quality AQ Index Pollutant
Not available.

Snow Depth

Station Depth Elevation

Earthquake Activity

City Distance Mag. Time & Date
Minimum magnitude displayed is 2.5.

Coastal Water Temperatures

Place Temperature

Stations

Nearby Weather Stations

Station Location Temp. Windchill Dew Point Humidity Wind Precip. Elev Updated Type